TAP11VP LEZL-LPPT
Flight info
| Callsign | TAP11VP |
|---|---|
| Flight time | N/A |
| Altitude | 32000 |
| Route | ONUBA DCT NAPES DCT OSLEP DCT MINTA DCT VATZI |
| Aircraft | A320/M-SDE3FGHIRWY/LB1 |
Departure
| Time | 2026-05-08 21:25 |
|---|---|
| Airport | Seville Airport (LEZL) |
Arrival
| Time | N/A |
|---|---|
| Airport | Lisbon Humberto Delgado Airport (LPPT) |
| Time | Latitude | Longitude | Altitude | Speed | Heading |
|---|---|---|---|---|---|
| 2026-05-08 21:11 | 37.42303 | -5.89842 | 94 ft | 0 kts | 315° |
| 2026-05-08 21:16 | 37.42302 | -5.89841 | 94 ft | 1 kts | 315° |
| 2026-05-08 21:16 | 37.42290 | -5.89827 | 97 ft | 3 kts | 318° |
| 2026-05-08 21:16 | 37.42275 | -5.89810 | 93 ft | 3 kts | 324° |
| 2026-05-08 21:17 | 37.42258 | -5.89797 | 93 ft | 3 kts | 341° |
| 2026-05-08 21:17 | 37.42240 | -5.89793 | 94 ft | 3 kts | 24° |
| 2026-05-08 21:17 | 37.42233 | -5.89797 | 94 ft | 0 kts | 44° |
| 2026-05-08 21:19 | 37.42234 | -5.89796 | 94 ft | 2 kts | 44° |
| 2026-05-08 21:19 | 37.42262 | -5.89747 | 94 ft | 8 kts | 79° |
| 2026-05-08 21:19 | 37.42229 | -5.89674 | 94 ft | 17 kts | 135° |
| 2026-05-08 21:20 | 37.42134 | -5.89556 | 97 ft | 19 kts | 134° |
| 2026-05-08 21:20 | 37.42064 | -5.89459 | 98 ft | 13 kts | 134° |
| 2026-05-08 21:20 | 37.42024 | -5.89409 | 98 ft | 11 kts | 135° |
| 2026-05-08 21:20 | 37.41982 | -5.89303 | 101 ft | 17 kts | 92° |
| 2026-05-08 21:21 | 37.41985 | -5.89151 | 100 ft | 18 kts | 89° |
| 2026-05-08 21:21 | 37.41985 | -5.88983 | 100 ft | 21 kts | 89° |
| 2026-05-08 21:21 | 37.41986 | -5.88791 | 103 ft | 23 kts | 93° |
| 2026-05-08 21:21 | 37.41985 | -5.88574 | 104 ft | 26 kts | 89° |
| 2026-05-08 21:22 | 37.41986 | -5.88331 | 105 ft | 29 kts | 91° |
| 2026-05-08 21:22 | 37.41987 | -5.88068 | 106 ft | 31 kts | 90° |
| 2026-05-08 21:22 | 37.41988 | -5.87797 | 108 ft | 28 kts | 90° |
| 2026-05-08 21:22 | 37.41989 | -5.87612 | 109 ft | 12 kts | 90° |
| 2026-05-08 21:23 | 37.41978 | -5.87515 | 110 ft | 11 kts | 108° |
| 2026-05-08 21:23 | 37.41898 | -5.87429 | 115 ft | 16 kts | 176° |
| 2026-05-08 21:23 | 37.41810 | -5.87503 | 115 ft | 14 kts | 240° |
| 2026-05-08 21:23 | 37.41799 | -5.87581 | 115 ft | 0 kts | 270° |
| 2026-05-08 21:24 | 37.41800 | -5.87647 | 114 ft | 37 kts | 270° |
| 2026-05-08 21:24 | 37.41794 | -5.88306 | 107 ft | 110 kts | 270° |
| 2026-05-08 21:24 | 37.41788 | -5.89512 | 104 ft | 164 kts | 269° |
| 2026-05-08 21:24 | 37.41818 | -5.90995 | 645 ft | 174 kts | 275° |
| 2026-05-08 21:25 | 37.42001 | -5.92501 | 1454 ft | 175 kts | 276° |
| 2026-05-08 21:25 | 37.42247 | -5.94084 | 1908 ft | 196 kts | 277° |
| 2026-05-08 21:25 | 37.42551 | -5.95865 | 2310 ft | 221 kts | 277° |
| 2026-05-08 21:25 | 37.42663 | -5.97863 | 2806 ft | 238 kts | 255° |
| 2026-05-08 21:26 | 37.42210 | -5.99940 | 3446 ft | 253 kts | 249° |
| 2026-05-08 21:26 | 37.41712 | -6.02096 | 4380 ft | 260 kts | 249° |
| 2026-05-08 21:26 | 37.41339 | -6.03723 | 5109 ft | 263 kts | 249° |
| 2026-05-08 21:26 | 37.40920 | -6.05559 | 5833 ft | 266 kts | 249° |
| 2026-05-08 21:27 | 37.40410 | -6.07802 | 6840 ft | 268 kts | 249° |
| 2026-05-08 21:27 | 37.39900 | -6.10062 | 7843 ft | 269 kts | 249° |
| 2026-05-08 21:27 | 37.39410 | -6.12340 | 8842 ft | 271 kts | 250° |
| 2026-05-08 21:27 | 37.38931 | -6.14643 | 9845 ft | 273 kts | 250° |
| 2026-05-08 21:28 | 37.38444 | -6.17005 | 10434 ft | 290 kts | 250° |
| 2026-05-08 21:28 | 37.37917 | -6.19557 | 10815 ft | 311 kts | 250° |
| 2026-05-08 21:28 | 37.37370 | -6.22225 | 11576 ft | 318 kts | 250° |
| 2026-05-08 21:28 | 37.36821 | -6.24925 | 12495 ft | 319 kts | 250° |
| 2026-05-08 21:29 | 37.36272 | -6.27629 | 13442 ft | 320 kts | 250° |
| 2026-05-08 21:29 | 37.35719 | -6.30339 | 14301 ft | 321 kts | 250° |
| 2026-05-08 21:29 | 37.35159 | -6.33062 | 15089 ft | 323 kts | 249° |
| 2026-05-08 21:29 | 37.34591 | -6.35799 | 15843 ft | 325 kts | 249° |
| 2026-05-08 21:30 | 37.34015 | -6.38558 | 16609 ft | 328 kts | 249° |
| 2026-05-08 21:30 | 37.33436 | -6.41339 | 17367 ft | 330 kts | 248° |
| 2026-05-08 21:30 | 37.32855 | -6.44143 | 18126 ft | 333 kts | 248° |
| 2026-05-08 21:30 | 37.32271 | -6.46967 | 18794 ft | 335 kts | 248° |
| 2026-05-08 21:31 | 37.31682 | -6.49811 | 19459 ft | 338 kts | 248° |
| 2026-05-08 21:31 | 37.31089 | -6.52673 | 20122 ft | 340 kts | 248° |
| 2026-05-08 21:31 | 37.30488 | -6.55558 | 20781 ft | 343 kts | 248° |
| 2026-05-08 21:31 | 37.29879 | -6.58464 | 21436 ft | 345 kts | 248° |
| 2026-05-08 21:32 | 37.29264 | -6.61392 | 22098 ft | 348 kts | 248° |
| 2026-05-08 21:32 | 37.28643 | -6.64342 | 22744 ft | 351 kts | 248° |
| 2026-05-08 21:32 | 37.28019 | -6.67318 | 23376 ft | 354 kts | 248° |
| 2026-05-08 21:32 | 37.27395 | -6.70313 | 23920 ft | 356 kts | 248° |
| 2026-05-08 21:33 | 37.26766 | -6.73327 | 24456 ft | 357 kts | 248° |
| 2026-05-08 21:33 | 37.26136 | -6.76342 | 25022 ft | 358 kts | 248° |
| 2026-05-08 21:33 | 37.25498 | -6.79369 | 25556 ft | 358 kts | 248° |
| 2026-05-08 21:33 | 37.24858 | -6.82397 | 26073 ft | 359 kts | 247° |
| 2026-05-08 21:34 | 37.24216 | -6.85430 | 26587 ft | 361 kts | 247° |
| 2026-05-08 21:34 | 37.23569 | -6.88477 | 27102 ft | 362 kts | 247° |
| 2026-05-08 21:34 | 37.22920 | -6.91526 | 27593 ft | 363 kts | 247° |
| 2026-05-08 21:34 | 37.22269 | -6.94587 | 28093 ft | 364 kts | 247° |
| 2026-05-08 21:35 | 37.21616 | -6.97658 | 28554 ft | 365 kts | 247° |
| 2026-05-08 21:35 | 37.20962 | -7.00732 | 29004 ft | 366 kts | 247° |
| 2026-05-08 21:35 | 37.20304 | -7.03821 | 29445 ft | 367 kts | 247° |
| 2026-05-08 21:35 | 37.19646 | -7.06912 | 29876 ft | 368 kts | 246° |
| 2026-05-08 21:36 | 37.18985 | -7.10017 | 30230 ft | 369 kts | 246° |
| 2026-05-08 21:36 | 37.18319 | -7.13130 | 30556 ft | 370 kts | 246° |
| 2026-05-08 21:36 | 37.17647 | -7.16249 | 30860 ft | 372 kts | 246° |
| 2026-05-08 21:36 | 37.16972 | -7.19383 | 31162 ft | 373 kts | 246° |
| 2026-05-08 21:37 | 37.16296 | -7.22529 | 31505 ft | 372 kts | 246° |
| 2026-05-08 21:37 | 37.15624 | -7.25661 | 31830 ft | 372 kts | 246° |
| 2026-05-08 21:37 | 37.14957 | -7.28767 | 31895 ft | 363 kts | 246° |
| 2026-05-08 21:38 | 37.13710 | -7.34764 | 31899 ft | 355 kts | 250° |
| 2026-05-08 21:38 | 37.13499 | -7.37697 | 31901 ft | 368 kts | 260° |
| 2026-05-08 21:38 | 37.13837 | -7.40953 | 31897 ft | 387 kts | 272° |
| 2026-05-08 21:38 | 37.14764 | -7.44185 | 31899 ft | 401 kts | 278° |
| 2026-05-08 21:39 | 37.15820 | -7.47419 | 31900 ft | 401 kts | 279° |
| 2026-05-08 21:39 | 37.17936 | -7.53904 | 31898 ft | 402 kts | 279° |
| 2026-05-08 21:40 | 37.20042 | -7.60386 | 31901 ft | 402 kts | 279° |
| 2026-05-08 21:40 | 37.22134 | -7.66885 | 31900 ft | 402 kts | 279° |
| 2026-05-08 21:41 | 37.25272 | -7.76644 | 31896 ft | 402 kts | 279° |
| 2026-05-08 21:41 | 37.28057 | -7.82899 | 31887 ft | 439 kts | 302° |
| 2026-05-08 21:42 | 37.30607 | -7.85227 | 31879 ft | 471 kts | 324° |
| 2026-05-08 21:42 | 37.33716 | -7.86732 | 31871 ft | 482 kts | 330° |
| 2026-05-08 21:42 | 37.40108 | -7.89387 | 31864 ft | 485 kts | 333° |